createdAt,value
2022-11-15T00:01:35.090Z,42.20
2022-11-15T00:04:07.852Z,50.00
2022-11-15T00:06:39.561Z,46.80
2022-11-15T00:09:11.397Z,41.60
2022-11-15T00:11:43.280Z,49.30
2022-11-15T00:14:15.610Z,44.10
2022-11-15T00:16:47.480Z,41.70
2022-11-15T00:19:19.278Z,43.30
2022-11-15T00:21:50.813Z,46.00
2022-11-15T00:24:22.518Z,47.80
2022-11-15T00:26:54.230Z,52.80
2022-11-15T00:32:37.098Z,49.40
2022-11-15T00:35:10.145Z,44.00
2022-11-15T00:37:41.964Z,44.90
2022-11-15T00:40:15.672Z,47.70
2022-11-15T00:42:47.350Z,46.90
2022-11-15T00:45:19.295Z,49.90
2022-11-15T00:47:50.948Z,43.50
2022-11-15T00:50:23.074Z,50.40
2022-11-15T00:52:54.729Z,46.40
2022-11-15T00:55:26.807Z,50.40
2022-11-15T00:58:06.987Z,46.30
2022-11-15T01:00:47.875Z,53.40
2022-11-15T01:03:28.355Z,49.10
2022-11-15T01:06:03.261Z,54.30
2022-11-15T01:08:35.184Z,57.90
2022-11-15T01:11:08.198Z,51.40
2022-11-15T01:13:42.260Z,50.40
2022-11-15T01:16:17.968Z,46.30
2022-11-15T01:18:49.915Z,54.50
2022-11-15T01:21:22.887Z,51.50
2022-11-15T01:23:57.779Z,42.80
2022-11-15T01:26:29.881Z,53.80
2022-11-15T01:29:01.697Z,48.80
2022-11-15T01:31:33.825Z,50.40
2022-11-15T01:34:05.635Z,48.60
2022-11-15T01:36:37.538Z,47.50
2022-11-15T01:39:10.919Z,49.00
2022-11-15T01:41:42.833Z,45.00
2022-11-15T01:44:49.364Z,50.50
2022-11-15T01:47:25.143Z,47.70
2022-11-15T01:50:02.445Z,46.20
2022-11-15T01:52:37.756Z,47.00
2022-11-15T01:55:12.853Z,44.00
2022-11-15T01:57:46.962Z,48.50
2022-11-15T02:00:20.027Z,47.00
2022-11-15T02:02:52.040Z,49.00
2022-11-15T02:05:24.205Z,50.60
2022-11-15T02:07:56.415Z,51.70
2022-11-15T02:10:32.006Z,49.40
2022-11-15T02:13:04.852Z,45.40
2022-11-15T02:15:43.298Z,52.90
2022-11-15T02:18:26.836Z,48.70
2022-11-15T02:21:14.880Z,48.80
2022-11-15T02:24:26.211Z,52.20
2022-11-15T02:27:19.268Z,48.00
2022-11-15T02:30:09.784Z,49.40
2022-11-15T02:32:47.521Z,43.40
2022-11-15T02:35:27.054Z,44.10
2022-11-15T02:38:02.584Z,43.60
2022-11-15T02:40:41.983Z,45.70
2022-11-15T02:43:36.226Z,44.30
2022-11-15T02:46:15.864Z,40.80
2022-11-15T02:48:48.303Z,45.70
2022-11-15T02:51:21.531Z,42.80
2022-11-15T02:53:53.402Z,47.70
2022-11-15T02:56:25.449Z,43.50
2022-11-15T02:59:19.524Z,45.50
2022-11-15T03:02:07.608Z,42.40
2022-11-15T03:04:46.989Z,42.10
2022-11-15T03:07:28.315Z,46.80
2022-11-15T03:10:08.909Z,42.30
2022-11-15T03:12:46.602Z,47.30
2022-11-15T03:15:24.188Z,46.70
2022-11-15T03:18:02.527Z,49.10
2022-11-15T03:20:37.547Z,48.20
2022-11-15T03:23:12.849Z,45.50
2022-11-15T03:25:48.204Z,42.30
2022-11-15T03:28:26.752Z,48.00
2022-11-15T03:31:01.935Z,45.20
2022-11-15T03:33:34.689Z,48.00
2022-11-15T03:36:07.368Z,45.50
2022-11-15T03:38:40.999Z,51.10
2022-11-15T03:41:19.274Z,48.70
2022-11-15T03:43:55.805Z,49.30
2022-11-15T03:46:32.141Z,55.40
2022-11-15T03:49:11.261Z,48.60
2022-11-15T03:51:43.792Z,51.50
2022-11-15T03:54:16.888Z,47.50
2022-11-15T03:56:48.739Z,48.90
2022-11-15T03:59:20.608Z,45.80
2022-11-15T04:01:52.539Z,42.50
2022-11-15T04:04:24.514Z,45.40
2022-11-15T04:06:56.333Z,43.90
2022-11-15T04:09:28.729Z,45.80
2022-11-15T04:12:00.807Z,39.80
2022-11-15T04:14:32.508Z,51.00
2022-11-15T04:17:04.308Z,44.80
2022-11-15T04:19:53.705Z,45.00
2022-11-15T04:22:42.916Z,43.20
2022-11-15T04:25:27.242Z,44.60
2022-11-15T04:28:10.326Z,39.50
2022-11-15T04:30:52.005Z,40.60
2022-11-15T04:33:24.017Z,42.50
2022-11-15T04:36:13.244Z,39.00
2022-11-15T04:38:44.995Z,41.60
2022-11-15T04:41:16.752Z,40.70
2022-11-15T04:43:48.672Z,40.80
2022-11-15T04:46:20.656Z,37.80
2022-11-15T04:48:58.032Z,43.60
2022-11-15T04:51:30.821Z,40.30
2022-11-15T04:54:02.568Z,45.10
2022-11-15T04:56:34.536Z,43.40
2022-11-15T04:59:06.542Z,42.30
2022-11-15T05:01:43.580Z,41.00
2022-11-15T05:04:22.466Z,43.80
2022-11-15T05:06:54.974Z,44.20
2022-11-15T05:09:26.795Z,47.50
2022-11-15T05:11:58.547Z,39.40
2022-11-15T05:14:30.850Z,43.80
2022-11-15T05:17:02.912Z,39.80
2022-11-15T05:19:35.468Z,37.70
2022-11-15T05:22:07.126Z,44.30
2022-11-15T05:24:38.946Z,42.40
2022-11-15T05:27:10.628Z,38.50
2022-11-15T05:29:42.333Z,38.00
2022-11-15T05:32:14.677Z,41.60
2022-11-15T05:34:47.126Z,39.00
2022-11-15T05:37:19.308Z,42.70
2022-11-15T05:39:51.657Z,42.00
2022-11-15T05:42:23.448Z,41.10
2022-11-15T05:44:55.581Z,36.60
2022-11-15T05:47:30.496Z,40.20
2022-11-15T05:50:02.558Z,39.20
2022-11-15T05:52:38.282Z,36.80
2022-11-15T05:55:12.398Z,40.70
2022-11-15T05:57:44.517Z,40.00
2022-11-15T06:00:18.123Z,40.90
2022-11-15T06:02:50.014Z,40.50
2022-11-15T06:05:21.820Z,40.60
2022-11-15T06:07:53.677Z,41.60
2022-11-15T06:10:25.518Z,39.00
2022-11-15T06:13:03.037Z,41.60
2022-11-15T06:15:36.380Z,40.50
2022-11-15T06:18:08.317Z,39.40
2022-11-15T06:20:39.840Z,41.90
2022-11-15T06:23:11.424Z,41.20
2022-11-15T06:25:43.084Z,40.30
2022-11-15T06:28:14.658Z,40.00
2022-11-15T06:30:50.524Z,43.30
2022-11-15T06:33:24.743Z,42.30
2022-11-15T06:35:56.395Z,41.80
2022-11-15T06:38:28.918Z,41.90
2022-11-15T06:41:06.271Z,41.10
2022-11-15T06:43:39.070Z,46.10
2022-11-15T06:46:11.428Z,45.50
2022-11-15T06:48:43.113Z,38.70
2022-11-15T06:51:14.561Z,44.10
2022-11-15T06:53:46.017Z,40.20
2022-11-15T06:56:17.599Z,40.80
2022-11-15T06:58:49.051Z,39.60
2022-11-15T07:01:20.775Z,46.90
2022-11-15T07:03:52.526Z,45.30
2022-11-15T07:06:24.115Z,55.10
2022-11-15T07:08:56.750Z,45.60
2022-11-15T07:11:28.565Z,51.70
2022-11-15T07:14:00.617Z,47.20
2022-11-15T07:16:32.631Z,38.70
2022-11-15T07:19:04.740Z,41.70
2022-11-15T07:21:37.082Z,34.80
2022-11-15T07:24:10.103Z,37.20
2022-11-15T07:26:42.111Z,42.50
2022-11-15T07:29:14.428Z,41.30
2022-11-15T07:31:46.785Z,40.60
2022-11-15T07:34:18.561Z,41.60
2022-11-15T07:36:50.991Z,39.70
2022-11-15T07:39:22.602Z,43.60
2022-11-15T07:42:16.018Z,39.50
2022-11-15T07:44:47.783Z,40.80
2022-11-15T07:47:19.401Z,44.70
2022-11-15T07:49:51.223Z,45.50
2022-11-15T07:52:22.791Z,44.20
2022-11-15T07:54:54.653Z,44.10
2022-11-15T07:57:26.301Z,40.80
2022-11-15T07:59:57.952Z,38.00
2022-11-15T08:02:30.683Z,40.70
2022-11-15T08:05:02.477Z,40.90
2022-11-15T08:07:35.216Z,36.40
2022-11-15T08:10:09.749Z,37.50
2022-11-15T08:12:41.551Z,39.00
2022-11-15T08:15:14.343Z,37.20
2022-11-15T08:17:46.193Z,40.90
2022-11-15T08:20:18.918Z,37.30
2022-11-15T08:22:50.516Z,38.40
2022-11-15T08:25:22.181Z,37.10
2022-11-15T08:27:55.759Z,34.90
2022-11-15T08:30:27.966Z,36.40
2022-11-15T08:33:01.228Z,35.10
2022-11-15T08:35:33.429Z,36.90
2022-11-15T08:38:06.014Z,39.10
2022-11-15T08:40:37.749Z,36.60
2022-11-15T08:43:10.088Z,42.00
2022-11-15T08:45:43.063Z,34.70
2022-11-15T08:48:14.701Z,38.20
2022-11-15T08:50:46.420Z,40.80
2022-11-15T08:53:18.018Z,35.40
2022-11-15T08:55:49.732Z,39.00
2022-11-15T08:58:21.583Z,41.70
2022-11-15T09:00:53.585Z,36.50
2022-11-15T09:03:25.183Z,39.50
2022-11-15T09:06:01.505Z,35.20
2022-11-15T09:08:50.577Z,41.10
2022-11-15T09:11:23.458Z,40.00
2022-11-15T09:13:55.535Z,42.90
2022-11-15T09:16:27.023Z,37.90
2022-11-15T09:18:58.575Z,81.80
2022-11-15T09:21:31.096Z,51.00
2022-11-15T09:24:04.082Z,40.50
2022-11-15T09:26:35.727Z,38.40
2022-11-15T09:29:07.371Z,40.40
2022-11-15T09:31:39.188Z,39.90
2022-11-15T09:34:10.847Z,39.60
2022-11-15T09:36:43.652Z,36.00
2022-11-15T09:39:15.708Z,38.90
2022-11-15T09:42:02.790Z,37.50
2022-11-15T09:45:02.508Z,38.90
2022-11-15T09:47:58.654Z,40.20
2022-11-15T09:50:39.305Z,43.30
2022-11-15T09:53:41.498Z,40.40
2022-11-15T09:56:20.539Z,35.70
2022-11-15T09:59:00.612Z,39.40
2022-11-15T10:01:44.471Z,36.20
2022-11-15T10:04:16.896Z,38.60
2022-11-15T10:06:56.653Z,38.80
2022-11-15T10:09:31.896Z,40.90
2022-11-15T10:12:03.681Z,38.00
2022-11-15T10:14:35.488Z,35.80
2022-11-15T10:17:31.075Z,42.90
2022-11-15T10:20:12.491Z,40.20
2022-11-15T10:22:49.005Z,40.20
2022-11-15T10:25:27.315Z,38.70
2022-11-15T10:28:01.816Z,39.00
2022-11-15T10:30:39.557Z,36.00
2022-11-15T10:33:25.088Z,42.30
2022-11-15T10:36:19.398Z,36.60
2022-11-15T10:39:01.918Z,38.20
2022-11-15T10:41:40.999Z,37.60
2022-11-15T10:44:31.288Z,39.70
2022-11-15T10:47:27.414Z,38.10
2022-11-15T10:50:02.201Z,38.60
2022-11-15T10:55:22.561Z,37.70
2022-11-15T10:57:57.400Z,37.60
2022-11-15T11:03:08.325Z,38.00
2022-11-15T11:05:43.179Z,39.90
2022-11-15T11:08:31.182Z,38.80
2022-11-15T11:11:04.701Z,38.90
2022-11-15T11:13:38.889Z,41.80
2022-11-15T11:16:44.290Z,40.70
2022-11-15T11:19:58.880Z,38.80
2022-11-15T11:22:39.803Z,39.30
2022-11-15T11:25:28.573Z,40.30
2022-11-15T11:28:17.379Z,35.70
2022-11-15T11:31:00.964Z,54.80
2022-11-15T11:33:38.727Z,48.10
2022-11-15T11:36:22.845Z,48.60
2022-11-15T11:39:08.603Z,39.80
2022-11-15T11:41:52.465Z,46.90
2022-11-15T11:44:35.096Z,43.80
2022-11-15T11:47:13.311Z,42.90
2022-11-15T11:49:52.290Z,38.20
2022-11-15T11:52:29.658Z,44.10
2022-11-15T11:55:08.655Z,40.40
2022-11-15T11:57:46.695Z,41.20
2022-11-15T12:00:25.130Z,39.90
2022-11-15T12:03:07.581Z,40.70
2022-11-15T12:05:42.994Z,45.00
2022-11-15T12:08:28.491Z,43.10
2022-11-15T12:11:08.941Z,39.20
2022-11-15T12:13:41.141Z,42.30
2022-11-15T12:16:19.152Z,43.10
2022-11-15T12:18:53.956Z,41.90
2022-11-15T12:24:07.475Z,35.70
2022-11-15T12:26:44.262Z,42.60
2022-11-15T12:29:22.351Z,41.90
2022-11-15T12:31:58.285Z,44.10
2022-11-15T12:34:42.980Z,44.10
2022-11-15T12:37:49.915Z,50.80
2022-11-15T12:40:39.190Z,50.00
2022-11-15T12:43:43.683Z,43.10
2022-11-15T12:46:25.949Z,52.40
2022-11-15T12:49:02.340Z,56.10
2022-11-15T12:52:10.377Z,48.20
2022-11-15T12:55:29.843Z,54.30
2022-11-15T12:58:44.238Z,49.50
2022-11-15T13:01:52.645Z,59.00
2022-11-15T13:04:33.446Z,54.70
2022-11-15T13:07:08.986Z,57.00
2022-11-15T13:09:58.103Z,50.50
2022-11-15T13:12:57.998Z,45.80
2022-11-15T13:15:43.268Z,54.60
2022-11-15T13:18:34.369Z,54.30
2022-11-15T13:21:30.333Z,56.00
2022-11-15T13:24:01.945Z,51.20
2022-11-15T13:26:33.616Z,48.90
2022-11-15T13:29:05.892Z,51.50
2022-11-15T13:31:44.856Z,49.00
2022-11-15T13:34:53.243Z,44.40
2022-11-15T13:37:35.723Z,50.70
2022-11-15T13:40:32.624Z,41.10
2022-11-15T13:43:16.709Z,50.80
2022-11-15T13:45:48.171Z,47.00
2022-11-15T13:48:19.605Z,46.90
2022-11-15T13:50:51.224Z,44.50
2022-11-15T13:53:22.836Z,47.50
2022-11-15T13:55:58.184Z,47.50
2022-11-15T13:58:29.970Z,52.10
2022-11-15T14:01:06.408Z,47.30
2022-11-15T14:03:49.560Z,51.20
2022-11-15T14:06:23.296Z,40.50
2022-11-15T14:09:18.520Z,46.70
2022-11-15T14:11:58.903Z,45.30
2022-11-15T14:14:31.779Z,48.60
2022-11-15T14:17:04.681Z,46.90
2022-11-15T14:19:41.785Z,44.20
2022-11-15T14:22:18.680Z,48.00
2022-11-15T14:25:07.736Z,48.90
2022-11-15T14:27:39.379Z,45.40
2022-11-15T14:30:17.745Z,46.80
2022-11-15T14:32:50.962Z,45.30
2022-11-15T14:35:24.924Z,47.30
2022-11-15T14:37:56.706Z,40.60
2022-11-15T14:40:28.570Z,38.80
2022-11-15T14:43:00.242Z,36.40
2022-11-15T14:45:32.320Z,38.70
2022-11-15T14:48:03.751Z,42.60
2022-11-15T14:50:37.344Z,41.10
2022-11-15T14:53:09.915Z,43.80
2022-11-15T14:55:41.847Z,41.30
2022-11-15T14:58:13.409Z,43.00
2022-11-15T15:00:45.657Z,42.30
2022-11-15T15:03:17.257Z,43.70
2022-11-15T15:05:49.216Z,48.50
2022-11-15T15:08:20.932Z,44.80
2022-11-15T15:10:52.512Z,41.70
2022-11-15T15:13:28.376Z,48.10
2022-11-15T15:16:00.200Z,44.90
2022-11-15T15:18:32.735Z,41.60
2022-11-15T15:21:08.415Z,38.70
2022-11-15T15:23:39.931Z,42.70
2022-11-15T15:26:12.020Z,39.30
2022-11-15T15:28:44.580Z,38.80
2022-11-15T15:31:16.394Z,46.30
2022-11-15T15:33:48.200Z,40.20
2022-11-15T15:36:22.380Z,43.50
2022-11-15T15:38:54.360Z,46.70
2022-11-15T15:41:25.976Z,45.20
2022-11-15T15:44:00.811Z,47.40
2022-11-15T15:49:02.572Z,52.00
2022-11-15T15:51:37.874Z,49.80
2022-11-15T15:54:10.378Z,43.70
2022-11-15T15:56:42.364Z,45.90
2022-11-15T15:59:14.407Z,48.50
2022-11-15T16:01:47.578Z,41.70
2022-11-15T16:04:19.775Z,47.90
2022-11-15T16:06:53.942Z,51.30
2022-11-15T16:09:46.495Z,48.40
2022-11-15T16:12:18.823Z,46.30
2022-11-15T16:14:51.584Z,51.90
2022-11-15T16:17:30.094Z,48.40
2022-11-15T16:20:04.988Z,48.00
2022-11-15T16:22:36.751Z,54.60
2022-11-15T16:25:09.902Z,54.70
2022-11-15T16:27:46.196Z,51.20
2022-11-15T16:30:21.288Z,54.30
2022-11-15T16:32:54.869Z,58.20
2022-11-15T16:35:26.807Z,53.70
2022-11-15T16:37:59.153Z,54.50
2022-11-15T16:40:33.322Z,51.70
2022-11-15T16:43:07.474Z,54.10
2022-11-15T16:45:40.124Z,59.40
2022-11-15T16:48:25.655Z,53.30
2022-11-15T16:50:59.620Z,60.50
2022-11-15T16:53:31.442Z,55.70
2022-11-15T16:56:03.139Z,61.40
2022-11-15T16:58:35.515Z,58.80
2022-11-15T17:01:09.433Z,62.50
2022-11-15T17:03:41.112Z,58.90
2022-11-15T17:06:15.149Z,61.90
2022-11-15T17:08:47.012Z,60.10
2022-11-15T17:11:20.837Z,60.60
2022-11-15T17:13:59.543Z,56.50
2022-11-15T17:16:31.905Z,54.30
2022-11-15T17:19:04.101Z,58.30
2022-11-15T17:21:35.823Z,56.20
2022-11-15T17:24:09.284Z,56.30
2022-11-15T17:26:43.206Z,60.80
2022-11-15T17:29:15.520Z,64.30
2022-11-15T17:31:49.761Z,68.20
2022-11-15T17:34:22.410Z,68.20
2022-11-15T17:36:54.688Z,64.60
2022-11-15T17:39:26.973Z,71.10
2022-11-15T17:41:59.531Z,66.50
2022-11-15T17:44:31.841Z,66.40
2022-11-15T17:47:03.950Z,73.60
2022-11-15T17:49:39.781Z,75.40
2022-11-15T17:52:11.912Z,70.00
2022-11-15T17:54:43.943Z,85.70
2022-11-15T17:57:15.886Z,74.00
2022-11-15T17:59:51.236Z,78.00
2022-11-15T18:02:23.303Z,79.10
2022-11-15T18:04:55.054Z,74.20
2022-11-15T18:07:27.136Z,67.10
2022-11-15T18:10:00.661Z,72.60
2022-11-15T18:12:32.790Z,64.20
2022-11-15T18:15:04.336Z,71.40
2022-11-15T18:17:37.484Z,72.10
2022-11-15T18:20:10.944Z,77.00
2022-11-15T18:22:42.712Z,77.30
2022-11-15T18:25:19.207Z,77.10
2022-11-15T18:27:55.576Z,69.50
2022-11-15T18:30:27.847Z,76.10
2022-11-15T18:32:59.959Z,73.50
2022-11-15T18:35:31.651Z,78.90
2022-11-15T18:38:05.826Z,74.80
2022-11-15T18:40:37.614Z,74.20
2022-11-15T18:43:09.727Z,85.10
2022-11-15T18:45:41.416Z,77.10
2022-11-15T18:48:13.005Z,74.70
2022-11-15T18:50:44.802Z,79.40
2022-11-15T18:53:17.758Z,91.60
2022-11-15T18:55:49.471Z,84.90
2022-11-15T18:58:21.434Z,80.20
2022-11-15T19:00:52.979Z,90.50
2022-11-15T19:03:24.884Z,85.50
2022-11-15T19:06:02.841Z,82.00
2022-11-15T19:08:35.650Z,86.40
2022-11-15T19:11:10.025Z,86.50
2022-11-15T19:13:45.944Z,81.70
2022-11-15T19:16:18.833Z,89.00
2022-11-15T19:18:54.432Z,89.10
2022-11-15T19:21:27.079Z,72.20
2022-11-15T19:23:58.891Z,83.90
2022-11-15T19:26:31.654Z,75.70
2022-11-15T19:29:07.851Z,92.60
2022-11-15T19:31:40.849Z,96.20
2022-11-15T19:34:13.631Z,87.00
2022-11-15T19:36:46.647Z,91.80
2022-11-15T19:39:19.610Z,79.90
2022-11-15T19:41:52.287Z,80.90
2022-11-15T19:44:26.921Z,84.00
2022-11-15T19:46:58.902Z,90.30
2022-11-15T19:49:33.886Z,94.40
2022-11-15T19:52:05.795Z,77.30
2022-11-15T19:54:37.899Z,79.30
2022-11-15T19:57:09.676Z,78.30
2022-11-15T19:59:41.514Z,69.20
2022-11-15T20:02:18.583Z,71.70
2022-11-15T20:04:51.500Z,65.90
2022-11-15T20:07:24.019Z,68.00
2022-11-15T20:09:55.858Z,61.40
2022-11-15T20:12:27.276Z,65.20
2022-11-15T20:15:02.884Z,68.10
2022-11-15T20:17:34.494Z,66.50
2022-11-15T20:20:07.141Z,64.80
2022-11-15T20:22:38.794Z,71.50
2022-11-15T20:25:11.984Z,67.20
2022-11-15T20:27:43.497Z,65.70
2022-11-15T20:30:16.451Z,74.80
2022-11-15T20:32:48.292Z,72.90
2022-11-15T20:35:21.384Z,65.20
2022-11-15T20:37:53.543Z,66.80
2022-11-15T20:40:25.213Z,58.20
2022-11-15T20:42:57.710Z,56.20
2022-11-15T20:45:29.452Z,55.50
2022-11-15T20:48:01.846Z,60.30
2022-11-15T20:50:42.694Z,63.20
2022-11-15T20:53:17.099Z,58.50
2022-11-15T20:55:51.273Z,62.90
2022-11-15T20:58:23.348Z,53.50
2022-11-15T21:01:01.200Z,52.10
2022-11-15T21:03:33.425Z,61.80
2022-11-15T21:06:05.235Z,53.20
2022-11-15T21:08:50.927Z,51.60
2022-11-15T21:11:40.168Z,51.70
2022-11-15T21:14:11.672Z,56.50
2022-11-15T21:16:43.243Z,54.30
2022-11-15T21:19:15.386Z,52.30
2022-11-15T21:21:46.820Z,50.50
2022-11-15T21:24:18.445Z,54.20
2022-11-15T21:26:50.111Z,60.40
2022-11-15T21:29:21.649Z,47.10
2022-11-15T21:31:54.270Z,57.20
2022-11-15T21:34:26.061Z,55.40
2022-11-15T21:36:57.402Z,50.20
2022-11-15T21:39:28.961Z,55.10
2022-11-15T21:42:00.503Z,52.20
2022-11-15T21:44:32.595Z,54.20
2022-11-15T21:47:04.291Z,50.70
2022-11-15T21:49:35.902Z,54.90
2022-11-15T21:52:07.682Z,54.90
2022-11-15T21:54:41.830Z,51.10
2022-11-15T21:57:13.670Z,54.20
2022-11-15T21:59:58.956Z,54.60
2022-11-15T22:05:00.254Z,49.60
2022-11-15T22:07:31.908Z,54.50
2022-11-15T22:10:05.098Z,57.00
2022-11-15T22:12:36.710Z,51.30
2022-11-15T22:15:09.427Z,51.80
2022-11-15T22:17:59.468Z,42.90
2022-11-15T22:20:44.571Z,48.60
2022-11-15T22:23:16.883Z,43.20
2022-11-15T22:25:48.724Z,48.70
2022-11-15T22:28:20.967Z,36.00
2022-11-15T22:30:54.251Z,37.10
2022-11-15T22:33:27.416Z,41.50
2022-11-15T22:35:59.813Z,32.60
2022-11-15T22:38:31.898Z,40.90
2022-11-15T22:41:04.180Z,45.20
2022-11-15T22:43:36.316Z,38.20
2022-11-15T22:46:08.925Z,38.30
2022-11-15T22:48:41.263Z,38.90
2022-11-15T22:51:12.945Z,36.90
2022-11-15T22:53:44.623Z,41.70
2022-11-15T22:56:20.288Z,43.30
2022-11-15T22:58:52.180Z,38.00
2022-11-15T23:01:25.147Z,33.40
2022-11-15T23:03:57.001Z,41.10
2022-11-15T23:06:28.583Z,32.30
2022-11-15T23:09:00.386Z,33.80
2022-11-15T23:11:49.036Z,41.00
2022-11-15T23:14:20.987Z,42.40
2022-11-15T23:16:52.975Z,33.70
2022-11-15T23:19:25.063Z,35.90
2022-11-15T23:22:14.030Z,39.20
2022-11-15T23:24:45.636Z,39.20
2022-11-15T23:27:20.363Z,37.90
2022-11-15T23:30:09.489Z,38.20
2022-11-15T23:32:58.334Z,39.70
2022-11-15T23:35:30.100Z,38.40
2022-11-15T23:38:01.900Z,36.60
2022-11-15T23:40:33.733Z,39.90
2022-11-15T23:43:06.586Z,40.50
2022-11-15T23:45:41.149Z,31.00
2022-11-15T23:48:13.549Z,46.30
2022-11-15T23:50:47.824Z,39.40
2022-11-15T23:53:19.365Z,36.60
2022-11-15T23:55:59.845Z,36.00
2022-11-15T23:58:32.025Z,39.20
